sensor_id;sensor_type;location;lat;lon;timestamp;P1;durP1;ratioP1;P2;durP2;ratioP2
10005;SDS011;5042;42.626;23.382;2022-07-04T00:01:32;2.72;;;2.53;;
10005;SDS011;5042;42.626;23.382;2022-07-04T00:03:59;4.35;;;2.63;;
10005;SDS011;5042;42.626;23.382;2022-07-04T00:06:26;2.72;;;2.53;;
10005;SDS011;5042;42.626;23.382;2022-07-04T00:08:52;3.30;;;2.70;;
10005;SDS011;5042;42.626;23.382;2022-07-04T00:11:20;2.75;;;2.55;;
10005;SDS011;5042;42.626;23.382;2022-07-04T00:13:47;2.45;;;2.25;;
10005;SDS011;5042;42.626;23.382;2022-07-04T00:16:14;3.05;;;2.53;;
10005;SDS011;5042;42.626;23.382;2022-07-04T00:18:40;2.80;;;2.55;;
10005;SDS011;5042;42.626;23.382;2022-07-04T00:21:07;3.67;;;2.90;;
10005;SDS011;5042;42.626;23.382;2022-07-04T00:23:34;2.78;;;2.55;;
10005;SDS011;5042;42.626;23.382;2022-07-04T00:26:01;3.03;;;2.83;;
10005;SDS011;5042;42.626;23.382;2022-07-04T00:28:29;3.55;;;2.72;;
10005;SDS011;5042;42.626;23.382;2022-07-04T00:30:56;2.65;;;2.45;;
10005;SDS011;5042;42.626;23.382;2022-07-04T00:33:22;3.15;;;2.95;;
10005;SDS011;5042;42.626;23.382;2022-07-04T00:35:49;2.83;;;2.53;;
10005;SDS011;5042;42.626;23.382;2022-07-04T00:38:16;3.75;;;2.58;;
10005;SDS011;5042;42.626;23.382;2022-07-04T00:40:43;3.03;;;2.25;;
10005;SDS011;5042;42.626;23.382;2022-07-04T00:43:10;3.65;;;2.20;;
10005;SDS011;5042;42.626;23.382;2022-07-04T00:45:38;2.65;;;2.45;;
10005;SDS011;5042;42.626;23.382;2022-07-04T00:48:05;2.30;;;2.10;;
10005;SDS011;5042;42.626;23.382;2022-07-04T00:50:32;2.03;;;1.83;;
10005;SDS011;5042;42.626;23.382;2022-07-04T00:52:58;2.50;;;2.30;;
10005;SDS011;5042;42.626;23.382;2022-07-04T00:55:26;2.50;;;2.33;;
10005;SDS011;5042;42.626;23.382;2022-07-04T00:57:54;2.45;;;2.30;;
10005;SDS011;5042;42.626;23.382;2022-07-04T01:00:20;2.30;;;2.20;;
10005;SDS011;5042;42.626;23.382;2022-07-04T01:02:49;2.50;;;2.30;;
10005;SDS011;5042;42.626;23.382;2022-07-04T01:05:16;2.28;;;2.08;;
10005;SDS011;5042;42.626;23.382;2022-07-04T01:07:43;2.20;;;2.00;;
10005;SDS011;5042;42.626;23.382;2022-07-04T01:10:10;3.13;;;2.65;;
10005;SDS011;5042;42.626;23.382;2022-07-04T01:12:37;2.40;;;2.20;;
10005;SDS011;5042;42.626;23.382;2022-07-04T01:15:04;2.50;;;2.30;;
10005;SDS011;5042;42.626;23.382;2022-07-04T01:17:32;2.38;;;2.17;;
10005;SDS011;5042;42.626;23.382;2022-07-04T01:20:00;4.07;;;2.85;;
10005;SDS011;5042;42.626;23.382;2022-07-04T01:22:28;3.78;;;2.42;;
10005;SDS011;5042;42.626;23.382;2022-07-04T01:24:55;2.25;;;2.10;;
10005;SDS011;5042;42.626;23.382;2022-07-04T01:27:22;2.53;;;2.33;;
10005;SDS011;5042;42.626;23.382;2022-07-04T01:29:49;2.20;;;2.10;;
10005;SDS011;5042;42.626;23.382;2022-07-04T01:32:16;2.45;;;2.25;;
10005;SDS011;5042;42.626;23.382;2022-07-04T01:34:42;2.78;;;2.58;;
10005;SDS011;5042;42.626;23.382;2022-07-04T01:37:09;2.60;;;2.30;;
10005;SDS011;5042;42.626;23.382;2022-07-04T01:39:38;4.40;;;2.55;;
10005;SDS011;5042;42.626;23.382;2022-07-04T01:42:04;2.70;;;2.50;;
10005;SDS011;5042;42.626;23.382;2022-07-04T01:44:32;2.40;;;2.20;;
10005;SDS011;5042;42.626;23.382;2022-07-04T01:46:59;3.90;;;2.40;;
10005;SDS011;5042;42.626;23.382;2022-07-04T01:49:26;2.47;;;2.28;;
10005;SDS011;5042;42.626;23.382;2022-07-04T01:51:52;2.58;;;2.13;;
10005;SDS011;5042;42.626;23.382;2022-07-04T01:54:19;2.25;;;2.13;;
10005;SDS011;5042;42.626;23.382;2022-07-04T01:56:48;4.15;;;2.92;;
10005;SDS011;5042;42.626;23.382;2022-07-04T01:59:14;2.20;;;2.10;;
10005;SDS011;5042;42.626;23.382;2022-07-04T02:01:41;2.97;;;2.78;;
10005;SDS011;5042;42.626;23.382;2022-07-04T02:04:07;2.47;;;2.20;;
10005;SDS011;5042;42.626;23.382;2022-07-04T02:06:34;3.33;;;2.30;;
10005;SDS011;5042;42.626;23.382;2022-07-04T02:09:02;2.55;;;2.35;;
10005;SDS011;5042;42.626;23.382;2022-07-04T02:11:41;2.45;;;2.25;;
10005;SDS011;5042;42.626;23.382;2022-07-04T02:14:28;3.40;;;2.45;;
10005;SDS011;5042;42.626;23.382;2022-07-04T02:16:55;2.35;;;2.15;;
10005;SDS011;5042;42.626;23.382;2022-07-04T02:19:22;4.10;;;2.33;;
10005;SDS011;5042;42.626;23.382;2022-07-04T02:21:49;2.60;;;2.40;;
10005;SDS011;5042;42.626;23.382;2022-07-04T02:24:17;2.67;;;2.47;;
10005;SDS011;5042;42.626;23.382;2022-07-04T02:26:44;3.20;;;2.35;;
10005;SDS011;5042;42.626;23.382;2022-07-04T02:29:11;2.30;;;2.10;;
10005;SDS011;5042;42.626;23.382;2022-07-04T02:31:39;3.40;;;1.90;;
10005;SDS011;5042;42.626;23.382;2022-07-04T02:34:06;2.50;;;2.30;;
10005;SDS011;5042;42.626;23.382;2022-07-04T02:36:32;3.83;;;2.17;;
10005;SDS011;5042;42.626;23.382;2022-07-04T02:38:59;3.58;;;2.10;;
10005;SDS011;5042;42.626;23.382;2022-07-04T02:41:26;2.78;;;2.53;;
10005;SDS011;5042;42.626;23.382;2022-07-04T02:43:53;3.05;;;2.33;;
10005;SDS011;5042;42.626;23.382;2022-07-04T02:46:20;2.33;;;2.13;;
10005;SDS011;5042;42.626;23.382;2022-07-04T02:48:48;3.17;;;2.53;;
10005;SDS011;5042;42.626;23.382;2022-07-04T02:51:15;2.47;;;2.35;;
10005;SDS011;5042;42.626;23.382;2022-07-04T02:53:41;2.85;;;2.60;;
10005;SDS011;5042;42.626;23.382;2022-07-04T02:56:09;2.67;;;2.47;;
10005;SDS011;5042;42.626;23.382;2022-07-04T02:58:35;3.13;;;2.22;;
10005;SDS011;5042;42.626;23.382;2022-07-04T03:01:02;2.78;;;2.58;;
10005;SDS011;5042;42.626;23.382;2022-07-04T03:03:29;3.38;;;2.70;;
10005;SDS011;5042;42.626;23.382;2022-07-04T03:05:57;2.47;;;2.28;;
10005;SDS011;5042;42.626;23.382;2022-07-04T03:08:24;2.50;;;2.30;;
10005;SDS011;5042;42.626;23.382;2022-07-04T03:10:51;3.22;;;2.42;;
10005;SDS011;5042;42.626;23.382;2022-07-04T03:13:18;2.63;;;2.38;;
10005;SDS011;5042;42.626;23.382;2022-07-04T03:15:45;2.60;;;2.40;;
10005;SDS011;5042;42.626;23.382;2022-07-04T03:18:12;2.38;;;2.28;;
10005;SDS011;5042;42.626;23.382;2022-07-04T03:20:39;2.85;;;2.65;;
10005;SDS011;5042;42.626;23.382;2022-07-04T03:23:07;2.60;;;2.40;;
10005;SDS011;5042;42.626;23.382;2022-07-04T03:25:52;3.50;;;2.83;;
10005;SDS011;5042;42.626;23.382;2022-07-04T03:28:19;3.08;;;2.78;;
10005;SDS011;5042;42.626;23.382;2022-07-04T03:30:46;3.38;;;2.72;;
10005;SDS011;5042;42.626;23.382;2022-07-04T03:33:12;2.60;;;2.40;;
10005;SDS011;5042;42.626;23.382;2022-07-04T03:35:39;2.85;;;2.65;;
10005;SDS011;5042;42.626;23.382;2022-07-04T03:38:07;3.05;;;2.75;;
10005;SDS011;5042;42.626;23.382;2022-07-04T03:40:34;2.78;;;2.35;;
10005;SDS011;5042;42.626;23.382;2022-07-04T03:43:03;3.47;;;2.80;;
10005;SDS011;5042;42.626;23.382;2022-07-04T03:45:31;2.85;;;2.65;;
10005;SDS011;5042;42.626;23.382;2022-07-04T03:47:58;3.25;;;2.95;;
10005;SDS011;5042;42.626;23.382;2022-07-04T03:50:27;3.90;;;2.85;;
10005;SDS011;5042;42.626;23.382;2022-07-04T03:52:54;4.03;;;2.47;;
10005;SDS011;5042;42.626;23.382;2022-07-04T03:55:22;3.38;;;2.78;;
10005;SDS011;5042;42.626;23.382;2022-07-04T03:57:48;3.25;;;2.40;;
10005;SDS011;5042;42.626;23.382;2022-07-04T04:00:15;2.78;;;2.50;;
10005;SDS011;5042;42.626;23.382;2022-07-04T04:02:42;3.08;;;2.78;;
10005;SDS011;5042;42.626;23.382;2022-07-04T04:05:09;2.60;;;2.40;;
10005;SDS011;5042;42.626;23.382;2022-07-04T04:07:56;2.42;;;2.25;;
10005;SDS011;5042;42.626;23.382;2022-07-04T04:10:25;2.70;;;2.50;;
10005;SDS011;5042;42.626;23.382;2022-07-04T04:12:52;2.85;;;2.65;;
10005;SDS011;5042;42.626;23.382;2022-07-04T04:15:19;3.00;;;2.80;;
10005;SDS011;5042;42.626;23.382;2022-07-04T04:17:46;3.05;;;2.75;;
10005;SDS011;5042;42.626;23.382;2022-07-04T04:20:13;3.03;;;2.80;;
10005;SDS011;5042;42.626;23.382;2022-07-04T04:22:39;2.72;;;2.53;;
10005;SDS011;5042;42.626;23.382;2022-07-04T04:25:06;3.42;;;2.40;;
10005;SDS011;5042;42.626;23.382;2022-07-04T04:27:35;2.53;;;2.33;;
10005;SDS011;5042;42.626;23.382;2022-07-04T04:30:02;2.58;;;2.38;;
10005;SDS011;5042;42.626;23.382;2022-07-04T04:32:29;4.50;;;2.35;;
10005;SDS011;5042;42.626;23.382;2022-07-04T04:34:57;2.95;;;2.65;;
10005;SDS011;5042;42.626;23.382;2022-07-04T04:37:24;2.67;;;2.45;;
10005;SDS011;5042;42.626;23.382;2022-07-04T04:39:50;2.80;;;2.60;;
10005;SDS011;5042;42.626;23.382;2022-07-04T04:42:17;3.17;;;2.38;;
10005;SDS011;5042;42.626;23.382;2022-07-04T04:44:45;3.15;;;2.30;;
10005;SDS011;5042;42.626;23.382;2022-07-04T04:47:12;3.10;;;2.55;;
10005;SDS011;5042;42.626;23.382;2022-07-04T04:49:39;2.72;;;2.53;;
10005;SDS011;5042;42.626;23.382;2022-07-04T04:52:06;2.83;;;2.08;;
10005;SDS011;5042;42.626;23.382;2022-07-04T04:54:33;2.85;;;2.13;;
10005;SDS011;5042;42.626;23.382;2022-07-04T04:57:00;2.30;;;2.10;;
10005;SDS011;5042;42.626;23.382;2022-07-04T04:59:27;3.50;;;2.55;;
10005;SDS011;5042;42.626;23.382;2022-07-04T05:01:55;2.38;;;2.17;;
10005;SDS011;5042;42.626;23.382;2022-07-04T05:04:22;2.10;;;2.00;;
10005;SDS011;5042;42.626;23.382;2022-07-04T05:06:49;2.88;;;1.70;;
10005;SDS011;5042;42.626;23.382;2022-07-04T05:09:16;2.63;;;2.05;;
10005;SDS011;5042;42.626;23.382;2022-07-04T05:11:44;4.40;;;2.55;;
10005;SDS011;5042;42.626;23.382;2022-07-04T05:14:11;2.38;;;2.17;;
10005;SDS011;5042;42.626;23.382;2022-07-04T05:16:38;2.58;;;1.90;;
10005;SDS011;5042;42.626;23.382;2022-07-04T05:19:06;4.43;;;2.50;;
10005;SDS011;5042;42.626;23.382;2022-07-04T05:21:33;6.07;;;2.40;;
10005;SDS011;5042;42.626;23.382;2022-07-04T05:23:59;2.40;;;2.20;;
10005;SDS011;5042;42.626;23.382;2022-07-04T05:26:26;3.63;;;2.20;;
10005;SDS011;5042;42.626;23.382;2022-07-04T05:28:53;2.28;;;2.08;;
10005;SDS011;5042;42.626;23.382;2022-07-04T05:31:20;5.00;;;2.50;;
10005;SDS011;5042;42.626;23.382;2022-07-04T05:33:49;2.13;;;2.03;;
10005;SDS011;5042;42.626;23.382;2022-07-04T05:36:17;2.42;;;2.22;;
10005;SDS011;5042;42.626;23.382;2022-07-04T05:38:44;2.53;;;2.15;;
10005;SDS011;5042;42.626;23.382;2022-07-04T05:41:11;2.25;;;2.05;;
10005;SDS011;5042;42.626;23.382;2022-07-04T05:43:38;2.40;;;2.20;;
10005;SDS011;5042;42.626;23.382;2022-07-04T05:46:04;2.53;;;2.33;;
10005;SDS011;5042;42.626;23.382;2022-07-04T05:48:31;6.25;;;2.47;;
10005;SDS011;5042;42.626;23.382;2022-07-04T05:50:58;2.63;;;2.33;;
10005;SDS011;5042;42.626;23.382;2022-07-04T05:53:27;2.50;;;2.30;;
10005;SDS011;5042;42.626;23.382;2022-07-04T05:55:53;2.30;;;2.20;;
10005;SDS011;5042;42.626;23.382;2022-07-04T05:58:20;2.85;;;2.30;;
10005;SDS011;5042;42.626;23.382;2022-07-04T06:00:47;2.05;;;1.95;;
10005;SDS011;5042;42.626;23.382;2022-07-04T06:03:14;2.30;;;2.10;;
10005;SDS011;5042;42.626;23.382;2022-07-04T06:05:40;1.95;;;1.85;;
10005;SDS011;5042;42.626;23.382;2022-07-04T06:08:07;3.47;;;2.38;;
10005;SDS011;5042;42.626;23.382;2022-07-04T06:10:35;2.30;;;2.10;;
10005;SDS011;5042;42.626;23.382;2022-07-04T06:13:02;2.00;;;1.90;;
10005;SDS011;5042;42.626;23.382;2022-07-04T06:15:30;2.00;;;1.90;;
10005;SDS011;5042;42.626;23.382;2022-07-04T06:17:57;2.67;;;2.50;;
10005;SDS011;5042;42.626;23.382;2022-07-04T06:20:26;2.20;;;1.95;;
10005;SDS011;5042;42.626;23.382;2022-07-04T06:22:53;2.97;;;2.75;;
10005;SDS011;5042;42.626;23.382;2022-07-04T06:25:19;2.33;;;2.20;;
10005;SDS011;5042;42.626;23.382;2022-07-04T06:27:50;3.75;;;2.50;;
10005;SDS011;5042;42.626;23.382;2022-07-04T06:30:17;3.35;;;3.05;;
10005;SDS011;5042;42.626;23.382;2022-07-04T06:32:45;5.45;;;3.72;;
10005;SDS011;5042;42.626;23.382;2022-07-04T06:35:13;8.25;;;2.65;;
10005;SDS011;5042;42.626;23.382;2022-07-04T06:38:00;2.28;;;1.95;;
10005;SDS011;5042;42.626;23.382;2022-07-04T06:40:27;3.50;;;2.72;;
10005;SDS011;5042;42.626;23.382;2022-07-04T06:42:55;3.10;;;2.65;;
10005;SDS011;5042;42.626;23.382;2022-07-04T06:45:22;3.03;;;2.83;;
10005;SDS011;5042;42.626;23.382;2022-07-04T06:47:49;2.85;;;2.35;;
10005;SDS011;5042;42.626;23.382;2022-07-04T06:50:16;3.08;;;2.78;;
10005;SDS011;5042;42.626;23.382;2022-07-04T06:52:43;2.60;;;2.40;;
10005;SDS011;5042;42.626;23.382;2022-07-04T06:55:10;5.80;;;2.83;;
10005;SDS011;5042;42.626;23.382;2022-07-04T06:57:37;4.18;;;2.90;;
10005;SDS011;5042;42.626;23.382;2022-07-04T07:00:06;2.63;;;2.42;;
10005;SDS011;5042;42.626;23.382;2022-07-04T07:02:34;2.70;;;2.50;;
10005;SDS011;5042;42.626;23.382;2022-07-04T07:05:01;2.75;;;2.55;;
10005;SDS011;5042;42.626;23.382;2022-07-04T07:07:28;2.70;;;2.50;;
10005;SDS011;5042;42.626;23.382;2022-07-04T07:09:56;4.07;;;2.45;;
10005;SDS011;5042;42.626;23.382;2022-07-04T07:12:22;2.90;;;2.70;;
10005;SDS011;5042;42.626;23.382;2022-07-04T07:14:49;3.25;;;2.53;;
10005;SDS011;5042;42.626;23.382;2022-07-04T07:17:17;2.60;;;2.40;;
10005;SDS011;5042;42.626;23.382;2022-07-04T07:19:44;3.15;;;2.80;;
10005;SDS011;5042;42.626;23.382;2022-07-04T07:22:11;2.65;;;2.40;;
10005;SDS011;5042;42.626;23.382;2022-07-04T07:24:39;2.92;;;2.65;;
10005;SDS011;5042;42.626;23.382;2022-07-04T07:27:06;4.20;;;2.55;;
10005;SDS011;5042;42.626;23.382;2022-07-04T07:29:33;3.00;;;2.80;;
10005;SDS011;5042;42.626;23.382;2022-07-04T07:32:01;2.42;;;2.30;;
10005;SDS011;5042;42.626;23.382;2022-07-04T07:34:29;3.00;;;2.80;;
10005;SDS011;5042;42.626;23.382;2022-07-04T07:36:56;2.58;;;2.40;;
10005;SDS011;5042;42.626;23.382;2022-07-04T07:39:23;4.25;;;2.67;;
10005;SDS011;5042;42.626;23.382;2022-07-04T07:41:49;3.40;;;2.65;;
10005;SDS011;5042;42.626;23.382;2022-07-04T07:44:16;2.92;;;2.53;;
10005;SDS011;5042;42.626;23.382;2022-07-04T07:46:43;3.72;;;2.90;;
10005;SDS011;5042;42.626;23.382;2022-07-04T07:49:10;2.80;;;2.60;;
10005;SDS011;5042;42.626;23.382;2022-07-04T07:51:38;3.50;;;3.00;;
10005;SDS011;5042;42.626;23.382;2022-07-04T07:54:05;3.50;;;3.20;;
10005;SDS011;5042;42.626;23.382;2022-07-04T07:56:31;3.75;;;2.83;;
10005;SDS011;5042;42.626;23.382;2022-07-04T07:58:58;3.70;;;3.40;;
10005;SDS011;5042;42.626;23.382;2022-07-04T08:01:25;2.95;;;2.75;;
10005;SDS011;5042;42.626;23.382;2022-07-04T08:03:52;2.97;;;2.78;;
10005;SDS011;5042;42.626;23.382;2022-07-04T08:06:37;3.53;;;2.90;;
10005;SDS011;5042;42.626;23.382;2022-07-04T08:09:05;3.13;;;2.78;;
10005;SDS011;5042;42.626;23.382;2022-07-04T08:11:32;3.10;;;2.90;;
10005;SDS011;5042;42.626;23.382;2022-07-04T08:13:59;2.80;;;2.60;;
10005;SDS011;5042;42.626;23.382;2022-07-04T08:16:25;4.80;;;3.22;;
10005;SDS011;5042;42.626;23.382;2022-07-04T08:18:52;3.10;;;2.70;;
10005;SDS011;5042;42.626;23.382;2022-07-04T08:21:19;3.47;;;3.00;;
10005;SDS011;5042;42.626;23.382;2022-07-04T08:23:47;2.90;;;2.60;;
10005;SDS011;5042;42.626;23.382;2022-07-04T08:26:14;3.58;;;3.05;;
10005;SDS011;5042;42.626;23.382;2022-07-04T08:28:40;2.80;;;2.60;;
10005;SDS011;5042;42.626;23.382;2022-07-04T08:31:07;3.30;;;3.03;;
10005;SDS011;5042;42.626;23.382;2022-07-04T08:33:34;3.33;;;3.03;;
10005;SDS011;5042;42.626;23.382;2022-07-04T08:36:01;5.28;;;3.00;;
10005;SDS011;5042;42.626;23.382;2022-07-04T08:38:27;4.40;;;3.22;;
10005;SDS011;5042;42.626;23.382;2022-07-04T08:40:56;3.20;;;3.00;;
10005;SDS011;5042;42.626;23.382;2022-07-04T08:43:24;3.25;;;2.75;;
10005;SDS011;5042;42.626;23.382;2022-07-04T08:45:54;3.00;;;2.65;;
10005;SDS011;5042;42.626;23.382;2022-07-04T08:48:22;3.92;;;2.83;;
10005;SDS011;5042;42.626;23.382;2022-07-04T08:50:51;2.88;;;2.67;;
10005;SDS011;5042;42.626;23.382;2022-07-04T08:53:22;2.85;;;2.65;;
10005;SDS011;5042;42.626;23.382;2022-07-04T08:55:53;3.47;;;3.15;;
10005;SDS011;5042;42.626;23.382;2022-07-04T08:58:40;3.22;;;2.92;;
10005;SDS011;5042;42.626;23.382;2022-07-04T09:01:09;3.35;;;3.05;;
10005;SDS011;5042;42.626;23.382;2022-07-04T09:03:40;4.78;;;3.15;;
10005;SDS011;5042;42.626;23.382;2022-07-04T09:06:07;3.90;;;3.33;;
10005;SDS011;5042;42.626;23.382;2022-07-04T09:08:34;3.42;;;3.13;;
10005;SDS011;5042;42.626;23.382;2022-07-04T09:11:03;3.83;;;3.08;;
10005;SDS011;5042;42.626;23.382;2022-07-04T09:13:30;3.15;;;2.95;;
10005;SDS011;5042;42.626;23.382;2022-07-04T09:15:57;4.15;;;3.10;;
10005;SDS011;5042;42.626;23.382;2022-07-04T09:18:25;3.78;;;3.47;;
10005;SDS011;5042;42.626;23.382;2022-07-04T09:20:55;3.65;;;3.35;;
10005;SDS011;5042;42.626;23.382;2022-07-04T09:23:23;3.38;;;3.08;;
10005;SDS011;5042;42.626;23.382;2022-07-04T09:26:06;3.50;;;3.20;;
10005;SDS011;5042;42.626;23.382;2022-07-04T09:28:37;3.47;;;3.17;;
10005;SDS011;5042;42.626;23.382;2022-07-04T09:31:12;3.78;;;3.47;;
10005;SDS011;5042;42.626;23.382;2022-07-04T09:33:44;3.95;;;3.65;;
10005;SDS011;5042;42.626;23.382;2022-07-04T09:36:17;3.58;;;3.28;;
10005;SDS011;5042;42.626;23.382;2022-07-04T09:38:45;3.63;;;3.22;;
10005;SDS011;5042;42.626;23.382;2022-07-04T09:41:13;3.17;;;2.88;;
10005;SDS011;5042;42.626;23.382;2022-07-04T09:43:58;4.80;;;3.30;;
10005;SDS011;5042;42.626;23.382;2022-07-04T09:46:26;3.78;;;3.47;;
10005;SDS011;5042;42.626;23.382;2022-07-04T09:48:54;3.33;;;3.03;;
10005;SDS011;5042;42.626;23.382;2022-07-04T09:56:55;3.55;;;3.15;;
10005;SDS011;5042;42.626;23.382;2022-07-04T09:59:24;5.63;;;3.45;;
10005;SDS011;5042;42.626;23.382;2022-07-04T10:01:52;3.95;;;3.65;;
10005;SDS011;5042;42.626;23.382;2022-07-04T10:04:43;4.20;;;3.45;;
10005;SDS011;5042;42.626;23.382;2022-07-04T10:07:11;3.47;;;2.90;;
10005;SDS011;5042;42.626;23.382;2022-07-04T10:09:56;2.92;;;2.72;;
10005;SDS011;5042;42.626;23.382;2022-07-04T10:12:28;3.55;;;3.25;;
10005;SDS011;5042;42.626;23.382;2022-07-04T10:14:55;3.50;;;3.20;;
10005;SDS011;5042;42.626;23.382;2022-07-04T10:17:21;3.25;;;2.95;;
10005;SDS011;5042;42.626;23.382;2022-07-04T10:19:48;3.25;;;3.03;;
10005;SDS011;5042;42.626;23.382;2022-07-04T10:22:17;4.38;;;3.40;;
10005;SDS011;5042;42.626;23.382;2022-07-04T10:24:46;2.90;;;2.70;;
10005;SDS011;5042;42.626;23.382;2022-07-04T10:27:13;4.85;;;3.22;;
10005;SDS011;5042;42.626;23.382;2022-07-04T10:29:41;3.28;;;2.97;;
10005;SDS011;5042;42.626;23.382;2022-07-04T10:32:08;3.38;;;3.00;;
10005;SDS011;5042;42.626;23.382;2022-07-04T10:34:40;3.55;;;3.25;;
10005;SDS011;5042;42.626;23.382;2022-07-04T10:37:08;3.70;;;3.40;;
10005;SDS011;5042;42.626;23.382;2022-07-04T10:39:35;3.80;;;3.50;;
10005;SDS011;5042;42.626;23.382;2022-07-04T10:42:01;3.72;;;3.22;;
10005;SDS011;5042;42.626;23.382;2022-07-04T10:44:31;2.88;;;2.67;;
10005;SDS011;5042;42.626;23.382;2022-07-04T10:47:04;2.97;;;2.78;;
10005;SDS011;5042;42.626;23.382;2022-07-04T10:49:31;3.83;;;3.20;;
10005;SDS011;5042;42.626;23.382;2022-07-04T10:52:08;4.22;;;3.22;;
10005;SDS011;5042;42.626;23.382;2022-07-04T10:54:37;4.35;;;3.00;;
10005;SDS011;5042;42.626;23.382;2022-07-04T10:57:14;3.45;;;3.15;;
10005;SDS011;5042;42.626;23.382;2022-07-04T10:59:42;3.58;;;3.28;;
10005;SDS011;5042;42.626;23.382;2022-07-04T11:05:01;3.38;;;3.10;;
10005;SDS011;5042;42.626;23.382;2022-07-04T11:10:25;3.78;;;2.95;;
10005;SDS011;5042;42.626;23.382;2022-07-04T11:13:13;3.47;;;3.10;;
10005;SDS011;5042;42.626;23.382;2022-07-04T11:15:57;3.10;;;2.88;;
10005;SDS011;5042;42.626;23.382;2022-07-04T11:18:29;3.03;;;2.83;;
10005;SDS011;5042;42.626;23.382;2022-07-04T11:20:56;3.50;;;3.20;;
10005;SDS011;5042;42.626;23.382;2022-07-04T11:23:23;3.80;;;3.50;;
10005;SDS011;5042;42.626;23.382;2022-07-04T11:25:50;4.57;;;3.35;;
10005;SDS011;5042;42.626;23.382;2022-07-04T11:28:20;3.30;;;3.10;;
10005;SDS011;5042;42.626;23.382;2022-07-04T11:30:48;3.88;;;3.47;;
10005;SDS011;5042;42.626;23.382;2022-07-04T11:33:19;4.70;;;4.20;;
10005;SDS011;5042;42.626;23.382;2022-07-04T11:36:04;3.65;;;3.33;;
10005;SDS011;5042;42.626;23.382;2022-07-04T11:38:42;3.28;;;2.97;;
10005;SDS011;5042;42.626;23.382;2022-07-04T11:41:20;3.47;;;3.17;;
10005;SDS011;5042;42.626;23.382;2022-07-04T11:44:09;3.30;;;3.00;;
10005;SDS011;5042;42.626;23.382;2022-07-04T11:47:01;4.38;;;3.85;;
10005;SDS011;5042;42.626;23.382;2022-07-04T11:49:40;3.90;;;3.50;;
10005;SDS011;5042;42.626;23.382;2022-07-04T11:52:10;3.80;;;3.50;;
10005;SDS011;5042;42.626;23.382;2022-07-04T11:54:38;3.75;;;3.45;;
10005;SDS011;5042;42.626;23.382;2022-07-04T11:57:10;4.20;;;3.90;;
10005;SDS011;5042;42.626;23.382;2022-07-04T11:59:38;3.53;;;3.03;;
10005;SDS011;5042;42.626;23.382;2022-07-04T12:02:12;3.83;;;3.53;;
10005;SDS011;5042;42.626;23.382;2022-07-04T12:04:40;3.38;;;3.17;;
10005;SDS011;5042;42.626;23.382;2022-07-04T12:07:12;4.68;;;3.40;;
10005;SDS011;5042;42.626;23.382;2022-07-04T12:09:40;3.97;;;3.60;;
10005;SDS011;5042;42.626;23.382;2022-07-04T12:12:08;3.53;;;3.22;;
10005;SDS011;5042;42.626;23.382;2022-07-04T12:14:35;4.10;;;3.70;;
10005;SDS011;5042;42.626;23.382;2022-07-04T12:17:09;3.85;;;3.55;;
10005;SDS011;5042;42.626;23.382;2022-07-04T12:19:48;3.97;;;3.67;;
10005;SDS011;5042;42.626;23.382;2022-07-04T12:22:25;4.25;;;3.42;;
10005;SDS011;5042;42.626;23.382;2022-07-04T12:24:52;3.72;;;3.42;;
10005;SDS011;5042;42.626;23.382;2022-07-04T12:27:19;3.88;;;3.47;;
10005;SDS011;5042;42.626;23.382;2022-07-04T12:29:46;4.70;;;4.03;;
10005;SDS011;5042;42.626;23.382;2022-07-04T12:32:14;3.80;;;3.50;;
10005;SDS011;5042;42.626;23.382;2022-07-04T12:34:41;3.97;;;3.65;;
10005;SDS011;5042;42.626;23.382;2022-07-04T12:37:08;3.78;;;3.30;;
10005;SDS011;5042;42.626;23.382;2022-07-04T12:39:37;3.60;;;3.30;;
10005;SDS011;5042;42.626;23.382;2022-07-04T12:42:09;5.22;;;4.03;;
10005;SDS011;5042;42.626;23.382;2022-07-04T12:44:37;3.50;;;3.25;;
10005;SDS011;5042;42.626;23.382;2022-07-04T12:47:04;3.92;;;3.53;;
10005;SDS011;5042;42.626;23.382;2022-07-04T12:49:32;4.53;;;3.05;;
10005;SDS011;5042;42.626;23.382;2022-07-04T12:52:03;3.38;;;3.08;;
10005;SDS011;5042;42.626;23.382;2022-07-04T12:54:31;4.95;;;3.40;;
10005;SDS011;5042;42.626;23.382;2022-07-04T12:57:06;3.70;;;3.40;;
10005;SDS011;5042;42.626;23.382;2022-07-04T12:59:37;3.70;;;3.40;;
10005;SDS011;5042;42.626;23.382;2022-07-04T13:02:05;3.30;;;3.03;;
10005;SDS011;5042;42.626;23.382;2022-07-04T13:04:32;4.68;;;4.10;;
10005;SDS011;5042;42.626;23.382;2022-07-04T13:07:00;3.75;;;3.17;;
10005;SDS011;5042;42.626;23.382;2022-07-04T13:09:39;4.55;;;3.88;;
10005;SDS011;5042;42.626;23.382;2022-07-04T13:12:08;3.97;;;3.67;;
10005;SDS011;5042;42.626;23.382;2022-07-04T13:14:51;4.00;;;3.70;;
10005;SDS011;5042;42.626;23.382;2022-07-04T13:17:18;4.55;;;4.15;;
10005;SDS011;5042;42.626;23.382;2022-07-04T13:19:45;3.78;;;3.47;;
10005;SDS011;5042;42.626;23.382;2022-07-04T13:22:12;3.65;;;3.35;;
10005;SDS011;5042;42.626;23.382;2022-07-04T13:24:39;4.05;;;3.63;;
10005;SDS011;5042;42.626;23.382;2022-07-04T13:27:06;4.63;;;3.90;;
10005;SDS011;5042;42.626;23.382;2022-07-04T13:29:34;3.85;;;3.55;;
10005;SDS011;5042;42.626;23.382;2022-07-04T13:32:02;3.75;;;3.45;;
10005;SDS011;5042;42.626;23.382;2022-07-04T13:34:29;4.47;;;3.70;;
10005;SDS011;5042;42.626;23.382;2022-07-04T13:36:56;3.85;;;3.55;;
10005;SDS011;5042;42.626;23.382;2022-07-04T13:39:23;4.25;;;3.85;;
10005;SDS011;5042;42.626;23.382;2022-07-04T13:41:50;3.97;;;3.67;;
10005;SDS011;5042;42.626;23.382;2022-07-04T13:44:17;4.38;;;3.97;;
10005;SDS011;5042;42.626;23.382;2022-07-04T13:46:45;4.15;;;3.75;;
10005;SDS011;5042;42.626;23.382;2022-07-04T13:49:12;4.32;;;3.92;;
10005;SDS011;5042;42.626;23.382;2022-07-04T13:51:39;3.20;;;3.00;;
10005;SDS011;5042;42.626;23.382;2022-07-04T13:54:07;3.58;;;3.28;;
10005;SDS011;5042;42.626;23.382;2022-07-04T13:56:34;4.32;;;3.42;;
10005;SDS011;5042;42.626;23.382;2022-07-04T13:59:01;3.85;;;3.55;;
10005;SDS011;5042;42.626;23.382;2022-07-04T14:01:28;3.92;;;3.50;;
10005;SDS011;5042;42.626;23.382;2022-07-04T14:03:56;3.80;;;3.50;;
10005;SDS011;5042;42.626;23.382;2022-07-04T14:06:23;4.65;;;3.35;;
10005;SDS011;5042;42.626;23.382;2022-07-04T14:08:50;3.97;;;3.67;;
10005;SDS011;5042;42.626;23.382;2022-07-04T14:11:16;3.95;;;3.65;;
10005;SDS011;5042;42.626;23.382;2022-07-04T14:13:43;3.90;;;3.50;;
10005;SDS011;5042;42.626;23.382;2022-07-04T14:16:10;4.10;;;3.70;;
10005;SDS011;5042;42.626;23.382;2022-07-04T14:18:37;4.28;;;3.75;;
10005;SDS011;5042;42.626;23.382;2022-07-04T14:21:05;3.88;;;3.58;;
10005;SDS011;5042;42.626;23.382;2022-07-04T14:23:32;4.20;;;3.80;;
10005;SDS011;5042;42.626;23.382;2022-07-04T14:26:08;4.35;;;3.67;;
10005;SDS011;5042;42.626;23.382;2022-07-04T14:28:36;4.18;;;3.78;;
10005;SDS011;5042;42.626;23.382;2022-07-04T14:31:03;4.15;;;3.85;;
10005;SDS011;5042;42.626;23.382;2022-07-04T14:33:30;4.25;;;3.90;;
10005;SDS011;5042;42.626;23.382;2022-07-04T14:35:58;5.80;;;3.70;;
10005;SDS011;5042;42.626;23.382;2022-07-04T14:38:27;4.40;;;4.00;;
10005;SDS011;5042;42.626;23.382;2022-07-04T14:40:54;4.40;;;3.97;;
10005;SDS011;5042;42.626;23.382;2022-07-04T14:43:20;3.63;;;3.33;;
10005;SDS011;5042;42.626;23.382;2022-07-04T14:45:47;5.47;;;3.70;;
10005;SDS011;5042;42.626;23.382;2022-07-04T14:48:14;4.50;;;4.10;;
10005;SDS011;5042;42.626;23.382;2022-07-04T14:50:41;4.60;;;3.75;;
10005;SDS011;5042;42.626;23.382;2022-07-04T14:53:10;4.35;;;3.95;;
10005;SDS011;5042;42.626;23.382;2022-07-04T14:55:38;3.95;;;3.65;;
10005;SDS011;5042;42.626;23.382;2022-07-04T14:58:08;3.92;;;3.50;;
10005;SDS011;5042;42.626;23.382;2022-07-04T15:00:35;4.25;;;3.85;;
10005;SDS011;5042;42.626;23.382;2022-07-04T15:03:01;3.70;;;3.40;;
10005;SDS011;5042;42.626;23.382;2022-07-04T15:05:28;4.00;;;3.70;;
10005;SDS011;5042;42.626;23.382;2022-07-04T15:07:55;3.72;;;3.42;;